Time;durP1;ratioP1;P1;durP2;ratioP2;P2;SDS_P1;SDS_P2;PMS_P1;PMS_P2;Temp;Humidity;BMP_temperature;BMP_pressure;BME280_temperature;BME280_humidity;BME280_pressure;Samples;Min_cycle;Max_cycle;Signal;HPM_P1;HPM_P2
2023/06/07 00:00:41;;;;;;;;;;;;;;;;;;4934032;28;19940;-81
2023/06/07 00:03:28;;;;;;;;;;;;;;;;;;4941184;28;19922;-81
2023/06/07 00:06:19;;;;;;;;;;;;;;;;;;4948307;28;20296;-80
2023/06/07 00:09:05;;;;;;;;;;;;;;;;;;4934585;29;20439;-80
2023/06/07 00:11:52;;;;;;;;;;;;;;;;;;4945327;28;19926;-79
2023/06/07 00:14:38;;;;;;;;;;;;;;;;;;4946422;28;20382;-80
2023/06/07 00:17:25;;;;;;;;;;;;;;;;;;4944818;28;19929;-79
2023/06/07 00:20:12;;;;;;;;;;;;;;;;;;4948806;28;20310;-79
2023/06/07 00:23:01;;;;;;;;;;;;;;;;;;4936619;29;20293;-79
2023/06/07 00:25:48;;;;;;;;;;;;;;;;;;4936810;29;19930;-82
2023/06/07 00:28:34;;;;;;;;;;;;;;;;;;4936068;28;19930;-81
2023/06/07 00:31:21;;;;;;;;;;;;;;;;;;4939964;28;19925;-81
2023/06/07 00:34:07;;;;;;;;;;;;;;;;;;4944284;29;19922;-80
2023/06/07 00:36:54;;;;;;;;;;;;;;;;;;4940127;29;19919;-81
2023/06/07 00:39:41;;;;;;;;;;;;;;;;;;4934860;29;19923;-79
2023/06/07 00:42:27;;;;;;;;;;;;;;;;;;4937670;29;19931;-79
2023/06/07 00:45:13;;;;;;;;;;;;;;;;;;4932565;29;19919;-79
2023/06/07 00:48:00;;;;;;;;;;;;;;;;;;4916012;29;20472;-80
2023/06/07 00:50:46;;;;;;;;;;;;;;;;;;4935174;28;19929;-80
2023/06/07 00:53:33;;;;;;;;;;;;;;;;;;4945483;28;19929;-82
2023/06/07 00:56:19;;;;;;;;;;;;;;;;;;4944214;28;19930;-80
2023/06/07 00:59:06;;;;;;;;;;;;;;;;;;4942437;28;19923;-80
2023/06/07 01:01:53;;;;;;;;;;;;;;;;;;4931976;28;19933;-80
2023/06/07 01:04:40;;;;;;;;;;;;;;;;;;4931829;29;19926;-80
2023/06/07 01:07:26;;;;;;;;;;;;;;;;;;4935412;29;19979;-79
2023/06/07 01:10:13;;;;;;;;;;;;;;;;;;4929558;29;19921;-80
2023/06/07 01:13:04;;;;;;;;;;;;;;;;;;4943263;29;19923;-80
2023/06/07 01:15:50;;;;;;;;;;;;;;;;;;4941775;29;20371;-80
2023/06/07 01:18:37;;;;;;;;;;;;;;;;;;4942715;28;19922;-80
2023/06/07 01:21:24;;;;;;;;;;;;;;;;;;4944251;29;19926;-81
2023/06/07 01:24:11;;;;;;;;;;;;;;;;;;4929484;28;20634;-80
2023/06/07 01:26:57;;;;;;;;;;;;;;;;;;4938809;28;19930;-81
2023/06/07 01:29:44;;;;;;;;;;;;;;;;;;4948853;28;19930;-79
2023/06/07 01:32:30;;;;;;;;;;;;;;;;;;4945891;28;20543;-78
2023/06/07 01:35:17;;;;;;;;;;;;;;;;;;4945443;28;19928;-80
2023/06/07 01:38:03;;;;;;;;;;;;;;;;;;4947191;28;19933;-79
2023/06/07 01:40:50;;;;;;;;;;;;;;;;;;4934671;29;19928;-79
2023/06/07 01:43:36;;;;;;;;;;;;;;;;;;4933812;28;19986;-79
2023/06/07 01:46:23;;;;;;;;;;;;;;;;;;4940958;28;19926;-79
2023/06/07 01:49:09;;;;;;;;;;;;;;;;;;4940039;29;20426;-78
2023/06/07 01:51:56;;;;;;;;;;;;;;;;;;4939189;28;19929;-78
2023/06/07 01:54:42;;;;;;;;;;;;;;;;;;4941431;28;20268;-79
2023/06/07 01:57:29;;;;;;;;;;;;;;;;;;4933896;29;19919;-79
2023/06/07 02:00:15;;;;;;;;;;;;;;;;;;4938755;29;19929;-79
2023/06/07 02:03:02;;;;;;;;;;;;;;;;;;4933469;28;19923;-79
2023/06/07 02:05:48;;;;;;;;;;;;;;;;;;4946456;28;20638;-78
2023/06/07 02:08:35;;;;;;;;;;;;;;;;;;4928270;29;19919;-78
2023/06/07 02:11:22;;;;;;;;;;;;;;;;;;4934539;29;19925;-80
2023/06/07 02:14:09;;;;;;;;;;;;;;;;;;4954913;28;19925;-79
2023/06/07 02:16:55;;;;;;;;;;;;;;;;;;4939750;28;19918;-79
2023/06/07 02:19:42;;;;;;;;;;;;;;;;;;4936371;29;20386;-81
2023/06/07 02:22:29;;;;;;;;;;;;;;;;;;4933535;28;19965;-82
2023/06/07 02:25:15;;;;;;;;;;;;;;;;;;4943123;28;19923;-84
2023/06/07 02:28:02;;;;;;;;;;;;;;;;;;4932930;28;19927;-81
2023/06/07 02:30:49;;;;;;;;;;;;;;;;;;4940237;29;20500;-82
2023/06/07 02:33:35;;;;;;;;;;;;;;;;;;4934658;29;19922;-82
2023/06/07 02:36:22;;;;;;;;;;;;;;;;;;4942177;28;20381;-82
2023/06/07 02:39:08;;;;;;;;;;;;;;;;;;4950676;28;19918;-81
2023/06/07 02:41:55;;;;;;;;;;;;;;;;;;4931690;29;19927;-82
2023/06/07 02:44:41;;;;;;;;;;;;;;;;;;4940830;29;19921;-81
2023/06/07 02:47:28;;;;;;;;;;;;;;;;;;4929578;29;19934;-82
2023/06/07 02:50:14;;;;;;;;;;;;;;;;;;4937196;29;20371;-82
2023/06/07 02:53:01;;;;;;;;;;;;;;;;;;4939860;29;19927;-81
2023/06/07 02:55:48;;;;;;;;;;;;;;;;;;4939032;29;19930;-81
2023/06/07 02:58:34;;;;;;;;;;;;;;;;;;4938051;28;20674;-82
2023/06/07 03:01:21;;;;;;;;;;;;;;;;;;4944580;29;19938;-84
2023/06/07 03:04:08;;;;;;;;;;;;;;;;;;4937113;29;19927;-83
2023/06/07 03:06:55;;;;;;;;;;;;;;;;;;4938850;29;19929;-83
2023/06/07 03:09:43;;;;;;;;;;;;;;;;;;4941974;29;19999;-83
2023/06/07 03:12:29;;;;;;;;;;;;;;;;;;4940551;29;20554;-85
2023/06/07 03:15:16;;;;;;;;;;;;;;;;;;4946848;29;19927;-85
2023/06/07 03:18:04;;;;;;;;;;;;;;;;;;4948924;28;20101;-86
2023/06/07 03:20:50;;;;;;;;;;;;;;;;;;4943972;29;19954;-85
2023/06/07 03:23:37;;;;;;;;;;;;;;;;;;4942798;28;20311;-86
2023/06/07 03:26:23;;;;;;;;;;;;;;;;;;4938136;28;20417;-85
2023/06/07 03:29:10;;;;;;;;;;;;;;;;;;4937763;28;19944;-85
2023/06/07 03:31:56;;;;;;;;;;;;;;;;;;4946377;28;19919;-85
2023/06/07 03:34:43;;;;;;;;;;;;;;;;;;4946172;28;19922;-84
2023/06/07 03:37:30;;;;;;;;;;;;;;;;;;4935483;29;19925;-83
2023/06/07 03:40:16;;;;;;;;;;;;;;;;;;4946596;28;20228;-84
2023/06/07 03:43:03;;;;;;;;;;;;;;;;;;4920869;29;19926;-85
2023/06/07 03:45:49;;;;;;;;;;;;;;;;;;4937144;29;19926;-84
2023/06/07 03:48:37;;;;;;;;;;;;;;;;;;4939922;28;19922;-85
2023/06/07 03:51:24;;;;;;;;;;;;;;;;;;4943978;29;19923;-84
2023/06/07 03:54:10;;;;;;;;;;;;;;;;;;4941182;29;19925;-84
2023/06/07 03:56:57;;;;;;;;;;;;;;;;;;4936456;28;20493;-83
2023/06/07 03:59:43;;;;;;;;;;;;;;;;;;4938567;28;19929;-85
2023/06/07 04:02:30;;;;;;;;;;;;;;;;;;4939885;29;19927;-88
2023/06/07 04:05:17;;;;;;;;;;;;;;;;;;4939967;28;19922;-85
2023/06/07 04:08:05;;;;;;;;;;;;;;;;;;4947856;28;19918;-87
2023/06/07 04:10:52;;;;;;;;;;;;;;;;;;4946338;28;19918;-87
2023/06/07 04:13:39;;;;;;;;;;;;;;;;;;4935962;29;19995;-84
2023/06/07 04:16:26;;;;;;;;;;;;;;;;;;4944240;29;19923;-85
2023/06/07 04:19:12;;;;;;;;;;;;;;;;;;4935215;28;19924;-83
2023/06/07 04:21:59;;;;;;;;;;;;;;;;;;4939670;28;19972;-82
2023/06/07 04:24:46;;;;;;;;;;;;;;;;;;4941303;28;19922;-85
2023/06/07 04:27:34;;;;;;;;;;;;;;;;;;4937969;29;20417;-84
2023/06/07 04:30:23;;;;;;;;;;;;;;;;;;4944368;28;20271;-84
2023/06/07 04:33:10;;;;;;;;;;;;;;;;;;4943423;28;19925;-83
2023/06/07 04:35:59;;;;;;;;;;;;;;;;;;4952886;28;19965;-82
2023/06/07 04:38:46;;;;;;;;;;;;;;;;;;4940838;28;19928;-84
2023/06/07 04:41:35;;;;;;;;;;;;;;;;;;4940806;28;19933;-84
2023/06/07 04:44:28;;;;;;;;;;;;;;;;;;4934069;29;19969;-81
2023/06/07 04:47:15;;;;;;;;;;;;;;;;;;4936022;29;20375;-83
2023/06/07 04:50:01;;;;;;;;;;;;;;;;;;4940308;29;19947;-83
2023/06/07 04:52:49;;;;;;;;;;;;;;;;;;4922628;28;19926;-81
2023/06/07 04:55:37;;;;;;;;;;;;;;;;;;4937954;28;19946;-83
2023/06/07 04:58:23;;;;;;;;;;;;;;;;;;4932621;29;19923;-82
2023/06/07 05:01:10;;;;;;;;;;;;;;;;;;4940279;29;19930;-80
2023/06/07 05:03:57;;;;;;;;;;;;;;;;;;4945331;28;20464;-79
2023/06/07 05:06:43;;;;;;;;;;;;;;;;;;4942897;29;19925;-80
2023/06/07 05:09:30;;;;;;;;;;;;;;;;;;4934020;28;19919;-79
2023/06/07 05:12:16;;;;;;;;;;;;;;;;;;4942299;28;19929;-79
2023/06/07 05:15:03;;;;;;;;;;;;;;;;;;4945133;28;20091;-80
2023/06/07 05:17:49;;;;;;;;;;;;;;;;;;4942329;28;19934;-79
2023/06/07 05:20:36;;;;;;;;;;;;;;;;;;4943809;28;19934;-79
2023/06/07 05:23:22;;;;;;;;;;;;;;;;;;4933852;29;19918;-80
2023/06/07 05:26:09;;;;;;;;;;;;;;;;;;4935891;28;19922;-80
2023/06/07 05:28:55;;;;;;;;;;;;;;;;;;4940282;28;19938;-80
2023/06/07 05:31:42;;;;;;;;;;;;;;;;;;4943316;28;20378;-79
2023/06/07 05:34:28;;;;;;;;;;;;;;;;;;4945545;28;19923;-81
2023/06/07 05:37:14;;;;;;;;;;;;;;;;;;4944917;28;19919;-78
2023/06/07 05:40:04;;;;;;;;;;;;;;;;;;4935922;28;20381;-80
2023/06/07 05:42:51;;;;;;;;;;;;;;;;;;4946767;28;19946;-80
2023/06/07 05:45:37;;;;;;;;;;;;;;;;;;4942183;28;20307;-79
2023/06/07 05:48:24;;;;;;;;;;;;;;;;;;4943735;28;19929;-78
2023/06/07 05:51:11;;;;;;;;;;;;;;;;;;4941538;28;20417;-80
2023/06/07 05:53:58;;;;;;;;;;;;;;;;;;4947992;28;19922;-81
2023/06/07 05:56:44;;;;;;;;;;;;;;;;;;4947242;28;19918;-79
2023/06/07 05:59:30;;;;;;;;;;;;;;;;;;4935142;28;19929;-79
2023/06/07 06:02:20;;;;;;;;;;;;;;;;;;4946480;28;19930;-79
2023/06/07 06:05:06;;;;;;;;;;;;;;;;;;4933663;28;19926;-80
2023/06/07 06:07:53;;;;;;;;;;;;;;;;;;4903361;29;19957;-81
2023/06/07 06:10:44;;;;;;;;;;;;;;;;;;4927704;28;19946;-80
2023/06/07 06:13:32;;;;;;;;;;;;;;;;;;4934108;28;19925;-78
2023/06/07 06:16:19;;;;;;;;;;;;;;;;;;4946805;28;20524;-79
2023/06/07 06:19:05;;;;;;;;;;;;;;;;;;4937225;28;19937;-79
2023/06/07 06:21:52;;;;;;;;;;;;;;;;;;4934473;28;20327;-79
2023/06/07 06:24:38;;;;;;;;;;;;;;;;;;4940994;28;19926;-79
2023/06/07 06:27:25;;;;;;;;;;;;;;;;;;4945454;28;19938;-79
2023/06/07 06:33:16;;;;;;;;;;;;;;;;;;4908360;29;19934;-80
2023/06/07 06:36:03;;;;;;;;;;;;;;;;;;4939166;29;20290;-80
2023/06/07 06:38:50;;;;;;;;;;;;;;;;;;4934519;29;19927;-79
2023/06/07 06:41:37;;;;;;;;;;;;;;;;;;4944777;29;19930;-79
2023/06/07 06:44:23;;;;;;;;;;;;;;;;;;4946286;29;19922;-79
2023/06/07 06:47:10;;;;;;;;;;;;;;;;;;4939656;29;19919;-79
2023/06/07 06:49:59;;;;;;;;;;;;;;;;;;4937526;28;19933;-80
2023/06/07 06:52:45;;;;;;;;;;;;;;;;;;4938091;28;20066;-79
2023/06/07 06:55:32;;;;;;;;;;;;;;;;;;4943293;28;19933;-79
2023/06/07 06:58:19;;;;;;;;;;;;;;;;;;4938823;28;20003;-78
2023/06/07 07:01:05;;;;;;;;;;;;;;;;;;4935438;28;19937;-78
2023/06/07 07:03:52;;;;;;;;;;;;;;;;;;4941924;28;19937;-80
2023/06/07 07:06:38;;;;;;;;;;;;;;;;;;4938082;29;20417;-80
2023/06/07 07:09:25;;;;;;;;;;;;;;;;;;4937528;28;19926;-80
2023/06/07 07:12:11;;;;;;;;;;;;;;;;;;4930514;28;19930;-81
2023/06/07 07:14:58;;;;;;;;;;;;;;;;;;4928536;28;19919;-79
2023/06/07 07:17:46;;;;;;;;;;;;;;;;;;4943521;28;19922;-80
2023/06/07 07:20:32;;;;;;;;;;;;;;;;;;4937096;29;19933;-80
2023/06/07 07:23:19;;;;;;;;;;;;;;;;;;4941963;28;19930;-80
2023/06/07 07:26:06;;;;;;;;;;;;;;;;;;4933999;28;19929;-80
2023/06/07 07:28:53;;;;;;;;;;;;;;;;;;4934675;28;20345;-80
2023/06/07 07:31:39;;;;;;;;;;;;;;;;;;4942338;28;19927;-79
2023/06/07 07:34:26;;;;;;;;;;;;;;;;;;4937577;29;19923;-80
2023/06/07 07:37:12;;;;;;;;;;;;;;;;;;4939934;28;19922;-80
2023/06/07 07:39:59;;;;;;;;;;;;;;;;;;4924065;29;19923;-80
2023/06/07 07:42:46;;;;;;;;;;;;;;;;;;4937023;28;20430;-80
2023/06/07 07:45:32;;;;;;;;;;;;;;;;;;4940381;28;20271;-80
2023/06/07 07:48:19;;;;;;;;;;;;;;;;;;4931132;28;19928;-80
2023/06/07 07:51:05;;;;;;;;;;;;;;;;;;4936575;28;20350;-80
2023/06/07 07:53:52;;;;;;;;;;;;;;;;;;4936316;28;19922;-79
2023/06/07 07:56:38;;;;;;;;;;;;;;;;;;4929661;28;19919;-80
2023/06/07 07:59:25;;;;;;;;;;;;;;;;;;4938334;28;19925;-80
2023/06/07 08:02:12;;;;;;;;;;;;;;;;;;4938637;28;19938;-80
2023/06/07 08:04:59;;;;;;;;;;;;;;;;;;4932606;28;19919;-80
2023/06/07 08:07:45;;;;;;;;;;;;;;;;;;4939760;29;19925;-80
2023/06/07 08:10:32;;;;;;;;;;;;;;;;;;4931102;28;19923;-80
2023/06/07 08:13:18;;;;;;;;;;;;;;;;;;4936326;28;19926;-80
2023/06/07 08:16:05;;;;;;;;;;;;;;;;;;4938991;29;19938;-80
2023/06/07 08:18:51;;;;;;;;;;;;;;;;;;4942746;28;20389;-80
2023/06/07 08:21:38;;;;;;;;;;;;;;;;;;4941886;28;19931;-80
2023/06/07 08:24:24;;;;;;;;;;;;;;;;;;4945200;28;19919;-80
2023/06/07 08:27:11;;;;;;;;;;;;;;;;;;4940970;29;19943;-80
2023/06/07 08:29:57;;;;;;;;;;;;;;;;;;4941114;29;19930;-80
2023/06/07 08:32:45;;;;;;;;;;;;;;;;;;4947423;28;19922;-80
2023/06/07 08:35:31;;;;;;;;;;;;;;;;;;4933575;28;19915;-79
2023/06/07 08:38:18;;;;;;;;;;;;;;;;;;4937073;29;19937;-80
2023/06/07 08:41:04;;;;;;;;;;;;;;;;;;4941570;28;20310;-80
2023/06/07 08:43:51;;;;;;;;;;;;;;;;;;4939176;29;19933;-79
2023/06/07 08:46:37;;;;;;;;;;;;;;;;;;4943266;28;19919;-79
2023/06/07 08:49:24;;;;;;;;;;;;;;;;;;4937813;29;19925;-79
2023/06/07 08:52:10;;;;;;;;;;;;;;;;;;4939098;28;19933;-80
2023/06/07 08:55:00;;;;;;;;;;;;;;;;;;4941872;28;19919;-81
2023/06/07 08:57:51;;;;;;;;;;;;;;;;;;4932293;28;19919;-80
2023/06/07 09:00:37;;;;;;;;;;;;;;;;;;4934847;29;19929;-81
2023/06/07 09:03:24;;;;;;;;;;;;;;;;;;4944776;28;19951;-79
2023/06/07 09:06:10;;;;;;;;;;;;;;;;;;4942170;28;19918;-79
2023/06/07 09:08:56;;;;;;;;;;;;;;;;;;4939533;28;19922;-79
2023/06/07 09:11:43;;;;;;;;;;;;;;;;;;4919457;29;20402;-79
2023/06/07 09:14:29;;;;;;;;;;;;;;;;;;4941136;29;19934;-79
2023/06/07 09:17:16;;;;;;;;;;;;;;;;;;4940414;28;20159;-79
2023/06/07 09:20:03;;;;;;;;;;;;;;;;;;4940181;29;19919;-78
2023/06/07 09:22:49;;;;;;;;;;;;;;;;;;4943423;28;19935;-80
2023/06/07 09:25:37;;;;;;;;;;;;;;;;;;4936966;28;20006;-79
2023/06/07 09:28:24;;;;;;;;;;;;;;;;;;4938622;29;20552;-79
2023/06/07 09:31:10;;;;;;;;;;;;;;;;;;4947104;28;19929;-79
2023/06/07 09:33:57;;;;;;;;;;;;;;;;;;4936482;29;20368;-78
2023/06/07 09:36:43;;;;;;;;;;;;;;;;;;4937839;29;19918;-78
2023/06/07 09:39:30;;;;;;;;;;;;;;;;;;4951858;28;20618;-78
2023/06/07 09:42:16;;;;;;;;;;;;;;;;;;4937190;28;19926;-79
2023/06/07 09:45:03;;;;;;;;;;;;;;;;;;4939445;29;19949;-79
2023/06/07 09:47:49;;;;;;;;;;;;;;;;;;4935832;28;20087;-80
2023/06/07 09:50:36;;;;;;;;;;;;;;;;;;4934638;28;20673;-78
2023/06/07 09:53:22;;;;;;;;;;;;;;;;;;4938482;28;19919;-78
2023/06/07 09:56:09;;;;;;;;;;;;;;;;;;4942325;29;20309;-78
2023/06/07 09:58:56;;;;;;;;;;;;;;;;;;4936659;29;19919;-79
2023/06/07 10:01:42;;;;;;;;;;;;;;;;;;4944766;28;20382;-79
2023/06/07 10:04:31;;;;;;;;;;;;;;;;;;4941008;29;19922;-78
2023/06/07 10:07:18;;;;;;;;;;;;;;;;;;4937751;28;19927;-78
2023/06/07 10:10:05;;;;;;;;;;;;;;;;;;4942889;29;20449;-79
2023/06/07 10:12:51;;;;;;;;;;;;;;;;;;4931766;28;19946;-78
2023/06/07 10:15:38;;;;;;;;;;;;;;;;;;4934919;28;19934;-78
2023/06/07 10:18:26;;;;;;;;;;;;;;;;;;4932380;28;19919;-78
2023/06/07 10:21:12;;;;;;;;;;;;;;;;;;4936511;29;19934;-79
2023/06/07 10:23:59;;;;;;;;;;;;;;;;;;4932286;28;19922;-79
2023/06/07 10:26:46;;;;;;;;;;;;;;;;;;4943054;28;19926;-78
2023/06/07 10:29:32;;;;;;;;;;;;;;;;;;4942354;28;20869;-80
2023/06/07 10:32:21;;;;;;;;;;;;;;;;;;4947132;28;19970;-79
2023/06/07 10:35:08;;;;;;;;;;;;;;;;;;4944381;28;19918;-83
2023/06/07 10:37:55;;;;;;;;;;;;;;;;;;4945719;28;19926;-77
2023/06/07 10:40:41;;;;;;;;;;;;;;;;;;4932527;29;20441;-79
2023/06/07 10:43:28;;;;;;;;;;;;;;;;;;4941085;29;20342;-78
2023/06/07 10:46:14;;;;;;;;;;;;;;;;;;4939979;28;19957;-79
2023/06/07 10:49:00;;;;;;;;;;;;;;;;;;4938667;28;19925;-79
2023/06/07 10:51:51;;;;;;;;;;;;;;;;;;4934041;29;19929;-78
2023/06/07 10:54:38;;;;;;;;;;;;;;;;;;4925628;28;19918;-78
2023/06/07 10:57:24;;;;;;;;;;;;;;;;;;4941364;28;19934;-79
2023/06/07 11:00:12;;;;;;;;;;;;;;;;;;4942171;28;19932;-80
2023/06/07 11:02:58;;;;;;;;;;;;;;;;;;4933559;29;19930;-79
2023/06/07 11:05:45;;;;;;;;;;;;;;;;;;4940232;29;19930;-79
2023/06/07 11:08:32;;;;;;;;;;;;;;;;;;4938379;28;19915;-79
2023/06/07 11:11:18;;;;;;;;;;;;;;;;;;4934033;28;19941;-79
2023/06/07 11:14:05;;;;;;;;;;;;;;;;;;4934383;28;20330;-79
2023/06/07 11:16:51;;;;;;;;;;;;;;;;;;4936465;29;19934;-79
2023/06/07 11:19:38;;;;;;;;;;;;;;;;;;4940163;28;19958;-79
2023/06/07 11:22:25;;;;;;;;;;;;;;;;;;4940501;29;19935;-80
2023/06/07 11:25:11;;;;;;;;;;;;;;;;;;4943918;28;20379;-81
2023/06/07 11:27:57;;;;;;;;;;;;;;;;;;4945216;28;19936;-79
2023/06/07 11:30:44;;;;;;;;;;;;;;;;;;4935961;29;19991;-79
2023/06/07 11:33:30;;;;;;;;;;;;;;;;;;4937454;28;19927;-79
2023/06/07 11:36:17;;;;;;;;;;;;;;;;;;4949433;28;19919;-79
2023/06/07 11:39:05;;;;;;;;;;;;;;;;;;4934164;28;19956;-79
2023/06/07 11:41:52;;;;;;;;;;;;;;;;;;4940528;28;19941;-81
2023/06/07 11:44:38;;;;;;;;;;;;;;;;;;4939101;28;19924;-81
2023/06/07 11:47:25;;;;;;;;;;;;;;;;;;4946423;28;20390;-83
2023/06/07 11:50:11;;;;;;;;;;;;;;;;;;4944717;28;19926;-84
2023/06/07 11:52:58;;;;;;;;;;;;;;;;;;4943002;28;20290;-82
2023/06/07 11:55:44;;;;;;;;;;;;;;;;;;4940749;28;19919;-83
2023/06/07 11:58:31;;;;;;;;;;;;;;;;;;4945264;28;19929;-81
2023/06/07 12:01:17;;;;;;;;;;;;;;;;;;4941485;28;19930;-83
2023/06/07 12:04:04;;;;;;;;;;;;;;;;;;4941931;28;20299;-83
2023/06/07 12:06:50;;;;;;;;;;;;;;;;;;4936822;28;19934;-83
2023/06/07 12:09:37;;;;;;;;;;;;;;;;;;4931594;29;19919;-83
2023/06/07 12:12:23;;;;;;;;;;;;;;;;;;4935340;29;19925;-83
2023/06/07 12:15:10;;;;;;;;;;;;;;;;;;4937741;28;19918;-84
2023/06/07 12:17:57;;;;;;;;;;;;;;;;;;4944826;28;19919;-83
2023/06/07 12:20:43;;;;;;;;;;;;;;;;;;4937208;29;19942;-84
2023/06/07 12:23:30;;;;;;;;;;;;;;;;;;4946580;28;19914;-83
2023/06/07 12:26:16;;;;;;;;;;;;;;;;;;4938772;29;19922;-81
2023/06/07 12:29:03;;;;;;;;;;;;;;;;;;4941176;29;20520;-82
2023/06/07 12:31:52;;;;;;;;;;;;;;;;;;4944746;28;19919;-82
2023/06/07 12:34:38;;;;;;;;;;;;;;;;;;4940567;29;20343;-82
2023/06/07 12:37:25;;;;;;;;;;;;;;;;;;4943509;28;19925;-82
2023/06/07 12:40:11;;;;;;;;;;;;;;;;;;4943669;28;19926;-82
2023/06/07 12:42:58;;;;;;;;;;;;;;;;;;4933331;28;19930;-85
2023/06/07 12:45:44;;;;;;;;;;;;;;;;;;4930799;29;19919;-84
2023/06/07 12:48:31;;;;;;;;;;;;;;;;;;4934375;28;19922;-84
2023/06/07 12:51:17;;;;;;;;;;;;;;;;;;4945745;28;19922;-84
2023/06/07 12:54:04;;;;;;;;;;;;;;;;;;4938512;29;19922;-84
2023/06/07 12:56:50;;;;;;;;;;;;;;;;;;4939601;29;20359;-83
2023/06/07 12:59:37;;;;;;;;;;;;;;;;;;4937985;28;19925;-81
2023/06/07 13:02:23;;;;;;;;;;;;;;;;;;4939287;29;19926;-81
2023/06/07 13:05:10;;;;;;;;;;;;;;;;;;4939298;28;20769;-82
2023/06/07 13:07:57;;;;;;;;;;;;;;;;;;4938006;28;19918;-82
2023/06/07 13:10:44;;;;;;;;;;;;;;;;;;4940146;28;19926;-81
2023/06/07 13:13:30;;;;;;;;;;;;;;;;;;4941309;29;19922;-82
2023/06/07 13:16:17;;;;;;;;;;;;;;;;;;4938172;29;20436;-82
2023/06/07 13:19:03;;;;;;;;;;;;;;;;;;4936749;28;19930;-83
2023/06/07 13:21:50;;;;;;;;;;;;;;;;;;4944986;28;19929;-81
2023/06/07 13:24:36;;;;;;;;;;;;;;;;;;4941490;28;20501;-81
2023/06/07 13:27:26;;;;;;;;;;;;;;;;;;4943633;28;19926;-83
2023/06/07 13:30:13;;;;;;;;;;;;;;;;;;4932719;29;19923;-81
2023/06/07 13:32:59;;;;;;;;;;;;;;;;;;4933490;28;19931;-80
2023/06/07 13:35:46;;;;;;;;;;;;;;;;;;4946806;28;20393;-84
2023/06/07 13:38:32;;;;;;;;;;;;;;;;;;4938261;28;19929;-80
2023/06/07 13:41:19;;;;;;;;;;;;;;;;;;4953576;28;19926;-81
2023/06/07 13:44:05;;;;;;;;;;;;;;;;;;4948012;28;19929;-84
2023/06/07 13:46:52;;;;;;;;;;;;;;;;;;4941160;29;19944;-84
2023/06/07 13:49:38;;;;;;;;;;;;;;;;;;4944963;28;19923;-82
2023/06/07 13:52:25;;;;;;;;;;;;;;;;;;4944497;29;19922;-81
2023/06/07 13:55:11;;;;;;;;;;;;;;;;;;4936411;29;20002;-80
2023/06/07 13:57:58;;;;;;;;;;;;;;;;;;4941962;28;20233;-82
2023/06/07 14:00:44;;;;;;;;;;;;;;;;;;4943627;29;20337;-82
2023/06/07 14:03:31;;;;;;;;;;;;;;;;;;4943646;29;19930;-80
2023/06/07 14:06:21;;;;;;;;;;;;;;;;;;4941655;28;19925;-81
2023/06/07 14:09:08;;;;;;;;;;;;;;;;;;4926965;28;20247;-82
2023/06/07 14:11:54;;;;;;;;;;;;;;;;;;4936951;28;20398;-82
2023/06/07 14:14:41;;;;;;;;;;;;;;;;;;4948286;28;19933;-82
2023/06/07 14:17:27;;;;;;;;;;;;;;;;;;4944929;28;19921;-81
2023/06/07 14:20:14;;;;;;;;;;;;;;;;;;4940769;28;20487;-82
2023/06/07 14:23:00;;;;;;;;;;;;;;;;;;4944390;29;19923;-82
2023/06/07 14:25:47;;;;;;;;;;;;;;;;;;4943254;29;19919;-81
2023/06/07 14:28:33;;;;;;;;;;;;;;;;;;4946637;28;19934;-80
2023/06/07 14:31:21;;;;;;;;;;;;;;;;;;4944846;28;19923;-82
2023/06/07 14:34:08;;;;;;;;;;;;;;;;;;4934149;29;19919;-82
2023/06/07 14:36:54;;;;;;;;;;;;;;;;;;4941463;28;19922;-82
2023/06/07 14:39:41;;;;;;;;;;;;;;;;;;4944629;28;20294;-83
2023/06/07 14:42:27;;;;;;;;;;;;;;;;;;4939028;28;19941;-82
2023/06/07 14:45:14;;;;;;;;;;;;;;;;;;4943690;28;20008;-84
2023/06/07 14:48:01;;;;;;;;;;;;;;;;;;4940762;28;19918;-83
2023/06/07 14:50:47;;;;;;;;;;;;;;;;;;4948939;28;19933;-82
2023/06/07 14:53:34;;;;;;;;;;;;;;;;;;4942394;28;19922;-81
2023/06/07 14:56:20;;;;;;;;;;;;;;;;;;4940814;28;19922;-81
2023/06/07 14:59:07;;;;;;;;;;;;;;;;;;4942381;29;19915;-84
2023/06/07 15:01:53;;;;;;;;;;;;;;;;;;4933914;28;19937;-83
2023/06/07 15:04:40;;;;;;;;;;;;;;;;;;4938187;29;19922;-85
2023/06/07 15:07:26;;;;;;;;;;;;;;;;;;4942505;29;19933;-86
2023/06/07 15:10:13;;;;;;;;;;;;;;;;;;4939881;29;19925;-88
2023/06/07 15:12:59;;;;;;;;;;;;;;;;;;4946446;28;19922;-84
2023/06/07 15:15:46;;;;;;;;;;;;;;;;;;4942072;28;20659;-86
2023/06/07 15:18:32;;;;;;;;;;;;;;;;;;4942799;29;19927;-84
2023/06/07 15:21:19;;;;;;;;;;;;;;;;;;4939745;29;19933;-86
2023/06/07 15:24:05;;;;;;;;;;;;;;;;;;4952309;28;20398;-86
2023/06/07 15:26:52;;;;;;;;;;;;;;;;;;4951649;28;19929;-88
2023/06/07 15:29:38;;;;;;;;;;;;;;;;;;4944692;28;20586;-87
2023/06/07 15:32:25;;;;;;;;;;;;;;;;;;4933130;29;19918;-87
2023/06/07 15:35:11;;;;;;;;;;;;;;;;;;4944466;28;19929;-86
2023/06/07 15:37:58;;;;;;;;;;;;;;;;;;4943248;28;19925;-88
2023/06/07 15:40:44;;;;;;;;;;;;;;;;;;4942902;28;19923;-85
2023/06/07 15:43:31;;;;;;;;;;;;;;;;;;4943044;28;20310;-85
2023/06/07 15:46:17;;;;;;;;;;;;;;;;;;4935176;28;19919;-85
2023/06/07 15:49:04;;;;;;;;;;;;;;;;;;4941950;29;19941;-85
2023/06/07 15:51:50;;;;;;;;;;;;;;;;;;4945607;28;20293;-85
2023/06/07 15:54:37;;;;;;;;;;;;;;;;;;4936220;28;19923;-85
2023/06/07 15:57:23;;;;;;;;;;;;;;;;;;4930933;29;19926;-85
2023/06/07 16:00:10;;;;;;;;;;;;;;;;;;4945672;28;19929;-84
2023/06/07 16:02:56;;;;;;;;;;;;;;;;;;4938307;28;19935;-85
2023/06/07 16:05:43;;;;;;;;;;;;;;;;;;4943256;29;19924;-87
2023/06/07 16:08:30;;;;;;;;;;;;;;;;;;4943868;29;19929;-85
2023/06/07 16:11:16;;;;;;;;;;;;;;;;;;4937040;28;20543;-85
2023/06/07 16:14:03;;;;;;;;;;;;;;;;;;4940255;29;19922;-85
2023/06/07 16:16:49;;;;;;;;;;;;;;;;;;4938580;28;19922;-85
2023/06/07 16:19:36;;;;;;;;;;;;;;;;;;4935437;29;20355;-84
2023/06/07 16:22:23;;;;;;;;;;;;;;;;;;4941517;28;19985;-86
2023/06/07 16:25:10;;;;;;;;;;;;;;;;;;4942740;29;19926;-84
2023/06/07 16:27:56;;;;;;;;;;;;;;;;;;4933226;28;19941;-85
2023/06/07 16:30:43;;;;;;;;;;;;;;;;;;4932882;29;19926;-85
2023/06/07 16:33:29;;;;;;;;;;;;;;;;;;4942775;29;19929;-85
2023/06/07 16:36:16;;;;;;;;;;;;;;;;;;4945252;28;19922;-86
2023/06/07 16:39:02;;;;;;;;;;;;;;;;;;4938129;28;19926;-86
2023/06/07 16:41:49;;;;;;;;;;;;;;;;;;4939606;28;19957;-86
2023/06/07 16:44:35;;;;;;;;;;;;;;;;;;4948088;28;19926;-86
2023/06/07 16:47:22;;;;;;;;;;;;;;;;;;4936902;28;19929;-83
2023/06/07 16:50:09;;;;;;;;;;;;;;;;;;4931905;28;19938;-78
2023/06/07 16:52:56;;;;;;;;;;;;;;;;;;4938334;28;19940;-80
2023/06/07 16:55:42;;;;;;;;;;;;;;;;;;4942805;28;19923;-83
2023/06/07 16:58:29;;;;;;;;;;;;;;;;;;4948892;28;19926;-78
2023/06/07 17:01:15;;;;;;;;;;;;;;;;;;4935024;29;19930;-78
2023/06/07 17:04:02;;;;;;;;;;;;;;;;;;4943432;29;19933;-78
2023/06/07 17:06:48;;;;;;;;;;;;;;;;;;4943428;28;19924;-78
2023/06/07 17:09:35;;;;;;;;;;;;;;;;;;4940955;28;19915;-79
2023/06/07 17:12:21;;;;;;;;;;;;;;;;;;4939957;29;19922;-79
2023/06/07 17:15:08;;;;;;;;;;;;;;;;;;4943374;28;19922;-78
2023/06/07 17:17:54;;;;;;;;;;;;;;;;;;4943767;29;19918;-79
2023/06/07 17:20:41;;;;;;;;;;;;;;;;;;4945049;28;19919;-80
2023/06/07 17:23:27;;;;;;;;;;;;;;;;;;4935303;28;19927;-78
2023/06/07 17:26:14;;;;;;;;;;;;;;;;;;4933461;29;19922;-80
2023/06/07 17:29:00;;;;;;;;;;;;;;;;;;4941159;28;19930;-79
2023/06/07 17:31:48;;;;;;;;;;;;;;;;;;4941880;28;19977;-77
2023/06/07 17:34:35;;;;;;;;;;;;;;;;;;4946858;28;20382;-78
2023/06/07 17:37:21;;;;;;;;;;;;;;;;;;4943135;28;19922;-78
2023/06/07 17:40:08;;;;;;;;;;;;;;;;;;4938460;29;20439;-79
2023/06/07 17:42:57;;;;;;;;;;;;;;;;;;4940819;29;19932;-79
2023/06/07 17:45:43;;;;;;;;;;;;;;;;;;4947783;28;19918;-78
2023/06/07 17:48:29;;;;;;;;;;;;;;;;;;4937605;28;19922;-79
2023/06/07 17:51:17;;;;;;;;;;;;;;;;;;4934353;28;20673;-80
2023/06/07 17:54:04;;;;;;;;;;;;;;;;;;4951506;28;19922;-79
2023/06/07 17:56:51;;;;;;;;;;;;;;;;;;4937104;28;20401;-78
2023/06/07 17:59:38;;;;;;;;;;;;;;;;;;4945607;28;20392;-80
2023/06/07 18:02:24;;;;;;;;;;;;;;;;;;4941420;29;19954;-80
2023/06/07 18:05:11;;;;;;;;;;;;;;;;;;4932610;29;19929;-81
2023/06/07 18:07:57;;;;;;;;;;;;;;;;;;4946888;28;19922;-79
2023/06/07 18:10:44;;;;;;;;;;;;;;;;;;4931925;29;19933;-78
2023/06/07 18:13:30;;;;;;;;;;;;;;;;;;4937512;28;19923;-82
2023/06/07 18:16:17;;;;;;;;;;;;;;;;;;4940746;28;20356;-83
2023/06/07 18:19:03;;;;;;;;;;;;;;;;;;4941711;29;19925;-84
2023/06/07 18:21:51;;;;;;;;;;;;;;;;;;4938312;29;19926;-85
2023/06/07 18:24:38;;;;;;;;;;;;;;;;;;4938433;29;19922;-84
2023/06/07 18:27:24;;;;;;;;;;;;;;;;;;4942329;29;19937;-84
2023/06/07 18:30:11;;;;;;;;;;;;;;;;;;4947017;28;19919;-84
2023/06/07 18:32:57;;;;;;;;;;;;;;;;;;4937258;29;20562;-82
2023/06/07 18:35:44;;;;;;;;;;;;;;;;;;4930668;28;20409;-82
2023/06/07 18:38:31;;;;;;;;;;;;;;;;;;4942118;28;19923;-83
2023/06/07 18:41:17;;;;;;;;;;;;;;;;;;4937742;29;19919;-83
2023/06/07 18:44:03;;;;;;;;;;;;;;;;;;4941315;29;20247;-81
2023/06/07 18:46:50;;;;;;;;;;;;;;;;;;4937734;28;19923;-81
2023/06/07 18:49:36;;;;;;;;;;;;;;;;;;4941296;28;19919;-80
2023/06/07 18:52:23;;;;;;;;;;;;;;;;;;4942918;28;19919;-80
2023/06/07 18:55:09;;;;;;;;;;;;;;;;;;4938851;28;19930;-81
2023/06/07 18:57:56;;;;;;;;;;;;;;;;;;4941726;29;19922;-83
2023/06/07 19:00:42;;;;;;;;;;;;;;;;;;4933525;28;19934;-83